sensor_id;sensor_type;location;lat;lon;timestamp;pressure;altitude;pressure_sealevel;temperature;humidity
51999;BME280;38015;50.924;11.598;2022-09-03T00:00:06;99490.52;;;22.82;37.54
51999;BME280;38015;50.924;11.598;2022-09-03T00:02:37;99492.03;;;22.76;37.66
51999;BME280;38015;50.924;11.598;2022-09-03T00:05:05;99494.92;;;22.82;37.57
51999;BME280;38015;50.924;11.598;2022-09-03T00:07:38;99490.87;;;22.78;37.64
51999;BME280;38015;50.924;11.598;2022-09-03T00:10:04;99487.22;;;22.87;37.46
51999;BME280;38015;50.924;11.598;2022-09-03T00:12:35;99491.56;;;22.83;37.50
51999;BME280;38015;50.924;11.598;2022-09-03T00:15:05;99488.36;;;22.78;37.65
51999;BME280;38015;50.924;11.598;2022-09-03T00:17:35;99484.27;;;22.76;37.68
51999;BME280;38015;50.924;11.598;2022-09-03T00:20:07;99482.73;;;22.78;37.64
51999;BME280;38015;50.924;11.598;2022-09-03T00:22:36;99483.56;;;22.76;37.67
51999;BME280;38015;50.924;11.598;2022-09-03T00:25:08;99491.97;;;22.81;37.57
51999;BME280;38015;50.924;11.598;2022-09-03T00:27:38;99489.59;;;22.80;37.61
51999;BME280;38015;50.924;11.598;2022-09-03T00:30:07;99490.37;;;22.82;37.57
51999;BME280;38015;50.924;11.598;2022-09-03T00:32:39;99490.63;;;22.82;37.55
51999;BME280;38015;50.924;11.598;2022-09-03T00:35:10;99487.39;;;22.77;37.66
51999;BME280;38015;50.924;11.598;2022-09-03T00:37:35;99491.64;;;22.81;37.57
51999;BME280;38015;50.924;11.598;2022-09-03T00:40:14;99490.40;;;22.75;37.72
51999;BME280;38015;50.924;11.598;2022-09-03T00:42:43;99491.42;;;22.70;37.80
51999;BME280;38015;50.924;11.598;2022-09-03T00:45:14;99492.45;;;22.82;37.57
51999;BME280;38015;50.924;11.598;2022-09-03T00:47:48;99493.91;;;22.72;37.74
51999;BME280;38015;50.924;11.598;2022-09-03T00:50:13;99496.64;;;22.74;37.74
51999;BME280;38015;50.924;11.598;2022-09-03T00:52:45;99496.05;;;22.73;37.75
51999;BME280;38015;50.924;11.598;2022-09-03T00:55:15;99494.32;;;22.76;37.71
51999;BME280;38015;50.924;11.598;2022-09-03T00:57:46;99495.66;;;22.72;37.74
51999;BME280;38015;50.924;11.598;2022-09-03T01:00:10;99494.92;;;22.74;37.72
51999;BME280;38015;50.924;11.598;2022-09-03T01:02:49;99493.69;;;22.74;37.74
51999;BME280;38015;50.924;11.598;2022-09-03T01:05:11;99496.73;;;22.74;37.72
51999;BME280;38015;50.924;11.598;2022-09-03T01:07:45;99502.31;;;22.74;37.72
51999;BME280;38015;50.924;11.598;2022-09-03T01:10:17;99499.84;;;22.75;37.71
51999;BME280;38015;50.924;11.598;2022-09-03T01:12:47;99500.66;;;22.71;37.77
51999;BME280;38015;50.924;11.598;2022-09-03T01:15:14;99499.61;;;22.74;37.70
51999;BME280;38015;50.924;11.598;2022-09-03T01:17:52;99502.53;;;22.74;37.72
51999;BME280;38015;50.924;11.598;2022-09-03T01:20:20;99499.05;;;22.74;37.70
51999;BME280;38015;50.924;11.598;2022-09-03T01:22:53;99496.15;;;22.71;37.75
51999;BME280;38015;50.924;11.598;2022-09-03T01:25:16;99496.69;;;22.70;37.80
51999;BME280;38015;50.924;11.598;2022-09-03T01:30:13;99496.79;;;22.77;37.63
51999;BME280;38015;50.924;11.598;2022-09-03T01:32:51;99494.67;;;22.66;37.87
51999;BME280;38015;50.924;11.598;2022-09-03T01:35:20;99494.49;;;22.66;37.85
51999;BME280;38015;50.924;11.598;2022-09-03T01:37:53;99493.86;;;22.71;37.71
51999;BME280;38015;50.924;11.598;2022-09-03T01:40:19;99497.37;;;22.73;37.69
51999;BME280;38015;50.924;11.598;2022-09-03T01:42:54;99501.31;;;22.69;37.78
51999;BME280;38015;50.924;11.598;2022-09-03T01:45:23;99500.80;;;22.75;37.64
51999;BME280;38015;50.924;11.598;2022-09-03T01:47:55;99500.40;;;22.77;37.59
51999;BME280;38015;50.924;11.598;2022-09-03T01:50:23;99499.84;;;22.68;37.80
51999;BME280;38015;50.924;11.598;2022-09-03T01:52:51;99498.80;;;22.75;37.62
51999;BME280;38015;50.924;11.598;2022-09-03T01:55:27;99499.29;;;22.76;37.62
51999;BME280;38015;50.924;11.598;2022-09-03T01:57:49;99501.93;;;22.69;37.79
51999;BME280;38015;50.924;11.598;2022-09-03T02:00:18;99503.11;;;22.70;37.73
51999;BME280;38015;50.924;11.598;2022-09-03T02:02:48;99503.76;;;22.64;37.84
51999;BME280;38015;50.924;11.598;2022-09-03T02:05:20;99502.96;;;22.72;37.71
51999;BME280;38015;50.924;11.598;2022-09-03T02:07:49;99507.05;;;22.72;37.68
51999;BME280;38015;50.924;11.598;2022-09-03T02:10:20;99504.96;;;22.72;37.67
51999;BME280;38015;50.924;11.598;2022-09-03T02:12:51;99504.77;;;22.63;37.84
51999;BME280;38015;50.924;11.598;2022-09-03T02:15:21;99503.86;;;22.62;37.90
51999;BME280;38015;50.924;11.598;2022-09-03T02:17:51;99501.64;;;22.63;37.88
51999;BME280;38015;50.924;11.598;2022-09-03T02:20:22;99506.23;;;22.68;37.75
51999;BME280;38015;50.924;11.598;2022-09-03T02:22:51;99507.68;;;22.68;37.73
51999;BME280;38015;50.924;11.598;2022-09-03T02:25:22;99506.54;;;22.68;37.75
51999;BME280;38015;50.924;11.598;2022-09-03T02:27:51;99504.24;;;22.71;37.70
51999;BME280;38015;50.924;11.598;2022-09-03T02:30:21;99502.52;;;22.68;37.75
51999;BME280;38015;50.924;11.598;2022-09-03T02:32:52;99502.84;;;22.69;37.73
51999;BME280;38015;50.924;11.598;2022-09-03T02:35:22;99501.68;;;22.70;37.69
51999;BME280;38015;50.924;11.598;2022-09-03T02:37:52;99502.88;;;22.72;37.64
51999;BME280;38015;50.924;11.598;2022-09-03T02:40:22;99499.57;;;22.66;37.78
51999;BME280;38015;50.924;11.598;2022-09-03T02:42:53;99499.57;;;22.73;37.61
51999;BME280;38015;50.924;11.598;2022-09-03T02:45:27;99495.25;;;22.63;37.86
51999;BME280;38015;50.924;11.598;2022-09-03T02:47:55;99494.71;;;22.69;37.71
51999;BME280;38015;50.924;11.598;2022-09-03T02:50:24;99493.78;;;22.67;37.75
51999;BME280;38015;50.924;11.598;2022-09-03T02:52:54;99493.17;;;22.68;37.71
51999;BME280;38015;50.924;11.598;2022-09-03T02:55:25;99491.39;;;22.66;37.79
51999;BME280;38015;50.924;11.598;2022-09-03T02:57:55;99490.81;;;22.64;37.83
51999;BME280;38015;50.924;11.598;2022-09-03T03:00:25;99490.63;;;22.65;37.78
51999;BME280;38015;50.924;11.598;2022-09-03T03:02:57;99487.45;;;22.61;37.89
51999;BME280;38015;50.924;11.598;2022-09-03T03:05:31;99487.37;;;22.66;37.81
51999;BME280;38015;50.924;11.598;2022-09-03T03:07:56;99490.20;;;22.68;37.74
51999;BME280;38015;50.924;11.598;2022-09-03T03:10:27;99489.69;;;22.64;37.81
51999;BME280;38015;50.924;11.598;2022-09-03T03:12:57;99489.78;;;22.69;37.71
51999;BME280;38015;50.924;11.598;2022-09-03T03:15:27;99492.68;;;22.67;37.76
51999;BME280;38015;50.924;11.598;2022-09-03T03:17:58;99493.01;;;22.72;37.66
51999;BME280;38015;50.924;11.598;2022-09-03T03:20:28;99494.19;;;22.71;37.67
51999;BME280;38015;50.924;11.598;2022-09-03T03:23:00;99497.36;;;22.73;37.65
51999;BME280;38015;50.924;11.598;2022-09-03T03:25:31;99494.75;;;22.67;37.79
51999;BME280;38015;50.924;11.598;2022-09-03T03:27:59;99492.22;;;22.64;37.84
51999;BME280;38015;50.924;11.598;2022-09-03T03:30:30;99493.06;;;22.71;37.68
51999;BME280;38015;50.924;11.598;2022-09-03T03:33:00;99493.30;;;22.66;37.78
51999;BME280;38015;50.924;11.598;2022-09-03T03:35:30;99493.98;;;22.67;37.75
51999;BME280;38015;50.924;11.598;2022-09-03T03:38:01;99492.69;;;22.67;37.78
51999;BME280;38015;50.924;11.598;2022-09-03T03:40:31;99489.91;;;22.64;37.82
51999;BME280;38015;50.924;11.598;2022-09-03T03:43:01;99493.25;;;22.65;37.81
51999;BME280;38015;50.924;11.598;2022-09-03T03:45:32;99494.63;;;22.61;37.88
51999;BME280;38015;50.924;11.598;2022-09-03T03:48:02;99492.19;;;22.65;37.79
51999;BME280;38015;50.924;11.598;2022-09-03T03:50:32;99491.93;;;22.65;37.76
51999;BME280;38015;50.924;11.598;2022-09-03T03:53:03;99492.13;;;22.62;37.86
51999;BME280;38015;50.924;11.598;2022-09-03T03:55:33;99495.80;;;22.69;37.70
51999;BME280;38015;50.924;11.598;2022-09-03T03:58:03;99493.15;;;22.59;37.93
51999;BME280;38015;50.924;11.598;2022-09-03T04:00:34;99491.89;;;22.63;37.82
51999;BME280;38015;50.924;11.598;2022-09-03T04:03:07;99490.03;;;22.64;37.77
51999;BME280;38015;50.924;11.598;2022-09-03T04:05:35;99489.03;;;22.74;37.57
51999;BME280;38015;50.924;11.598;2022-09-03T04:08:05;99487.54;;;22.59;37.92
51999;BME280;38015;50.924;11.598;2022-09-03T04:10:35;99489.06;;;22.61;37.88
51999;BME280;38015;50.924;11.598;2022-09-03T04:13:06;99489.83;;;22.60;37.88
51999;BME280;38015;50.924;11.598;2022-09-03T04:15:36;99493.50;;;22.67;37.72
51999;BME280;38015;50.924;11.598;2022-09-03T04:18:07;99492.18;;;22.60;37.89
51999;BME280;38015;50.924;11.598;2022-09-03T04:20:37;99493.78;;;22.63;37.80
51999;BME280;38015;50.924;11.598;2022-09-03T04:23:07;99495.52;;;22.61;37.87
51999;BME280;38015;50.924;11.598;2022-09-03T04:25:37;99491.90;;;22.68;37.68
51999;BME280;38015;50.924;11.598;2022-09-03T04:28:08;99491.87;;;22.58;37.93
51999;BME280;38015;50.924;11.598;2022-09-03T04:30:38;99490.87;;;22.63;37.80
51999;BME280;38015;50.924;11.598;2022-09-03T04:33:09;99490.91;;;22.63;37.82
51999;BME280;38015;50.924;11.598;2022-09-03T04:35:39;99489.00;;;22.61;37.84
51999;BME280;38015;50.924;11.598;2022-09-03T04:38:09;99489.79;;;22.68;37.72
51999;BME280;38015;50.924;11.598;2022-09-03T04:40:40;99490.61;;;22.64;37.78
51999;BME280;38015;50.924;11.598;2022-09-03T04:43:10;99489.13;;;22.64;37.77
51999;BME280;38015;50.924;11.598;2022-09-03T04:45:40;99492.49;;;22.66;37.73
51999;BME280;38015;50.924;11.598;2022-09-03T04:48:11;99491.63;;;22.68;37.69
51999;BME280;38015;50.924;11.598;2022-09-03T04:50:41;99490.95;;;22.56;37.93
51999;BME280;38015;50.924;11.598;2022-09-03T04:53:11;99489.69;;;22.57;37.91
51999;BME280;38015;50.924;11.598;2022-09-03T04:55:42;99491.70;;;22.63;37.82
51999;BME280;38015;50.924;11.598;2022-09-03T04:58:12;99492.05;;;22.64;37.78
51999;BME280;38015;50.924;11.598;2022-09-03T05:00:43;99495.12;;;22.62;37.82
51999;BME280;38015;50.924;11.598;2022-09-03T05:03:13;99498.38;;;22.69;37.66
51999;BME280;38015;50.924;11.598;2022-09-03T05:05:52;99502.47;;;22.68;37.70
51999;BME280;38015;50.924;11.598;2022-09-03T05:08:14;99505.64;;;22.62;37.82
51999;BME280;38015;50.924;11.598;2022-09-03T05:10:44;99507.84;;;22.74;37.56
51999;BME280;38015;50.924;11.598;2022-09-03T05:13:14;99511.51;;;22.69;37.66
51999;BME280;38015;50.924;11.598;2022-09-03T05:15:45;99510.89;;;22.75;37.48
51999;BME280;38015;50.924;11.598;2022-09-03T05:18:15;99511.37;;;22.63;37.79
51999;BME280;38015;50.924;11.598;2022-09-03T05:20:46;99503.87;;;22.70;37.65
51999;BME280;38015;50.924;11.598;2022-09-03T05:23:16;99500.21;;;22.70;37.62
51999;BME280;38015;50.924;11.598;2022-09-03T05:25:54;99498.95;;;22.60;37.84
51999;BME280;38015;50.924;11.598;2022-09-03T05:28:17;99498.93;;;22.74;37.53
51999;BME280;38015;50.924;11.598;2022-09-03T05:33:17;99501.35;;;22.62;37.79
51999;BME280;38015;50.924;11.598;2022-09-03T05:35:48;99502.32;;;22.68;37.71
51999;BME280;38015;50.924;11.598;2022-09-03T05:38:18;99501.77;;;22.67;37.72
51999;BME280;38015;50.924;11.598;2022-09-03T05:40:49;99504.34;;;22.67;37.69
51999;BME280;38015;50.924;11.598;2022-09-03T05:43:19;99503.65;;;22.64;37.78
51999;BME280;38015;50.924;11.598;2022-09-03T05:45:49;99507.50;;;22.64;37.76
51999;BME280;38015;50.924;11.598;2022-09-03T05:48:20;99505.64;;;22.67;37.69
51999;BME280;38015;50.924;11.598;2022-09-03T05:50:58;99510.31;;;22.64;37.77
51999;BME280;38015;50.924;11.598;2022-09-03T05:53:21;99507.60;;;22.64;37.78
51999;BME280;38015;50.924;11.598;2022-09-03T05:55:54;99508.30;;;22.71;37.62
51999;BME280;38015;50.924;11.598;2022-09-03T05:58:21;99508.64;;;22.71;37.62
51999;BME280;38015;50.924;11.598;2022-09-03T06:00:51;99513.77;;;22.72;37.61
51999;BME280;38015;50.924;11.598;2022-09-03T06:03:22;99515.66;;;22.65;37.75
51999;BME280;38015;50.924;11.598;2022-09-03T06:05:53;99512.10;;;22.66;37.72
51999;BME280;38015;50.924;11.598;2022-09-03T06:08:23;99507.80;;;22.77;37.50
51999;BME280;38015;50.924;11.598;2022-09-03T06:10:57;99510.39;;;22.66;37.75
51999;BME280;38015;50.924;11.598;2022-09-03T06:13:23;99516.31;;;22.76;37.56
51999;BME280;38015;50.924;11.598;2022-09-03T06:15:56;99522.86;;;22.67;37.75
51999;BME280;38015;50.924;11.598;2022-09-03T06:18:25;99521.26;;;22.62;37.86
51999;BME280;38015;50.924;11.598;2022-09-03T06:20:55;99519.22;;;22.68;37.74
51999;BME280;38015;50.924;11.598;2022-09-03T06:23:26;99518.68;;;22.64;37.84
51999;BME280;38015;50.924;11.598;2022-09-03T06:26:00;99519.28;;;22.73;37.65
51999;BME280;38015;50.924;11.598;2022-09-03T06:28:26;99522.83;;;22.67;37.77
51999;BME280;38015;50.924;11.598;2022-09-03T06:30:57;99525.24;;;22.79;37.51
51999;BME280;38015;50.924;11.598;2022-09-03T06:33:27;99525.00;;;22.85;37.35
51999;BME280;38015;50.924;11.598;2022-09-03T06:35:57;99525.51;;;22.80;37.46
51999;BME280;38015;50.924;11.598;2022-09-03T06:38:29;99522.58;;;22.83;37.41
51999;BME280;38015;50.924;11.598;2022-09-03T06:40:59;99524.42;;;22.73;37.66
51999;BME280;38015;50.924;11.598;2022-09-03T06:43:29;99522.01;;;22.74;37.61
51999;BME280;38015;50.924;11.598;2022-09-03T06:45:59;99520.09;;;22.67;37.78
51999;BME280;38015;50.924;11.598;2022-09-03T06:48:30;99520.57;;;22.68;37.79
51999;BME280;38015;50.924;11.598;2022-09-03T06:51:00;99518.23;;;22.71;37.71
51999;BME280;38015;50.924;11.598;2022-09-03T06:53:31;99516.65;;;22.73;37.70
51999;BME280;38015;50.924;11.598;2022-09-03T06:56:01;99513.68;;;22.66;37.81
51999;BME280;38015;50.924;11.598;2022-09-03T06:58:32;99513.49;;;22.68;37.80
51999;BME280;38015;50.924;11.598;2022-09-03T07:01:01;99510.37;;;22.70;37.78
51999;BME280;38015;50.924;11.598;2022-09-03T07:03:34;99510.07;;;22.72;37.73
51999;BME280;38015;50.924;11.598;2022-09-03T07:06:01;99510.41;;;22.79;37.54
51999;BME280;38015;50.924;11.598;2022-09-03T07:08:33;99511.53;;;22.72;37.68
51999;BME280;38015;50.924;11.598;2022-09-03T07:11:03;99509.64;;;22.77;37.60
51999;BME280;38015;50.924;11.598;2022-09-03T07:13:32;99511.69;;;22.81;37.51
51999;BME280;38015;50.924;11.598;2022-09-03T07:16:05;99509.38;;;22.74;37.67
51999;BME280;38015;50.924;11.598;2022-09-03T07:18:34;99506.35;;;22.74;37.66
51999;BME280;38015;50.924;11.598;2022-09-03T07:21:05;99506.35;;;22.96;37.21
51999;BME280;38015;50.924;11.598;2022-09-03T07:23:35;99508.04;;;22.74;37.63
51999;BME280;38015;50.924;11.598;2022-09-03T07:26:06;99504.94;;;22.78;37.56
51999;BME280;38015;50.924;11.598;2022-09-03T07:28:36;99499.48;;;22.75;37.64
51999;BME280;38015;50.924;11.598;2022-09-03T07:31:07;99498.16;;;22.80;37.52
51999;BME280;38015;50.924;11.598;2022-09-03T07:33:35;99495.13;;;22.75;37.65
51999;BME280;38015;50.924;11.598;2022-09-03T07:36:07;99496.30;;;22.73;37.69
51999;BME280;38015;50.924;11.598;2022-09-03T07:38:36;99493.63;;;22.74;37.69
51999;BME280;38015;50.924;11.598;2022-09-03T07:41:07;99493.54;;;22.70;37.78
51999;BME280;38015;50.924;11.598;2022-09-03T07:43:38;99491.17;;;22.61;37.98
51999;BME280;38015;50.924;11.598;2022-09-03T07:46:07;99489.36;;;22.73;37.74
51999;BME280;38015;50.924;11.598;2022-09-03T07:48:38;99487.04;;;22.67;37.85
51999;BME280;38015;50.924;11.598;2022-09-03T07:51:08;99487.78;;;22.71;37.76
51999;BME280;38015;50.924;11.598;2022-09-03T07:53:38;99488.18;;;22.71;37.75
51999;BME280;38015;50.924;11.598;2022-09-03T07:56:09;99485.32;;;22.67;37.87
51999;BME280;38015;50.924;11.598;2022-09-03T07:58:39;99487.53;;;22.68;37.84
51999;BME280;38015;50.924;11.598;2022-09-03T08:01:11;99491.26;;;22.69;37.81
51999;BME280;38015;50.924;11.598;2022-09-03T08:03:43;99496.53;;;22.64;37.94
51999;BME280;38015;50.924;11.598;2022-09-03T08:06:10;99494.13;;;22.67;37.88
51999;BME280;38015;50.924;11.598;2022-09-03T08:08:40;99495.05;;;22.69;37.83
51999;BME280;38015;50.924;11.598;2022-09-03T08:11:12;99495.72;;;22.65;37.93
51999;BME280;38015;50.924;11.598;2022-09-03T08:13:43;99496.69;;;22.70;37.83
51999;BME280;38015;50.924;11.598;2022-09-03T08:16:13;99494.20;;;22.68;37.84
51999;BME280;38015;50.924;11.598;2022-09-03T08:18:42;99491.26;;;22.68;37.85
51999;BME280;38015;50.924;11.598;2022-09-03T08:21:14;99485.81;;;22.71;37.81
51999;BME280;38015;50.924;11.598;2022-09-03T08:23:44;99487.29;;;22.68;37.87
51999;BME280;38015;50.924;11.598;2022-09-03T08:26:14;99487.29;;;22.78;37.65
51999;BME280;38015;50.924;11.598;2022-09-03T08:28:43;99486.76;;;22.76;37.69
51999;BME280;38015;50.924;11.598;2022-09-03T08:31:15;99482.88;;;22.77;37.70
51999;BME280;38015;50.924;11.598;2022-09-03T08:33:45;99476.62;;;22.76;37.71
51999;BME280;38015;50.924;11.598;2022-09-03T08:36:16;99472.26;;;22.77;37.67
51999;BME280;38015;50.924;11.598;2022-09-03T08:38:45;99471.79;;;22.74;37.76
51999;BME280;38015;50.924;11.598;2022-09-03T08:41:16;99470.56;;;22.67;37.93
51999;BME280;38015;50.924;11.598;2022-09-03T08:44:00;99466.93;;;22.74;37.80
51999;BME280;38015;50.924;11.598;2022-09-03T08:46:16;99460.92;;;22.76;37.73
51999;BME280;38015;50.924;11.598;2022-09-03T08:48:46;99458.01;;;22.75;37.75
51999;BME280;38015;50.924;11.598;2022-09-03T08:51:18;99458.87;;;22.75;37.77
51999;BME280;38015;50.924;11.598;2022-09-03T08:53:50;99459.46;;;22.84;37.59
51999;BME280;38015;50.924;11.598;2022-09-03T08:56:23;99462.29;;;22.95;37.34
51999;BME280;38015;50.924;11.598;2022-09-03T08:58:48;99462.79;;;22.99;37.26
51999;BME280;38015;50.924;11.598;2022-09-03T09:01:28;99458.66;;;22.95;37.35
51999;BME280;38015;50.924;11.598;2022-09-03T09:03:54;99457.00;;;23.09;37.01
51999;BME280;38015;50.924;11.598;2022-09-03T09:06:25;99457.49;;;23.09;37.00
51999;BME280;38015;50.924;11.598;2022-09-03T09:09:00;99459.26;;;23.10;36.97
51999;BME280;38015;50.924;11.598;2022-09-03T09:11:26;99454.80;;;23.16;36.84
51999;BME280;38015;50.924;11.598;2022-09-03T09:13:56;99449.96;;;23.08;37.03
51999;BME280;38015;50.924;11.598;2022-09-03T09:16:24;99449.92;;;23.07;37.05
51999;BME280;38015;50.924;11.598;2022-09-03T09:19:01;99448.43;;;23.08;37.02
51999;BME280;38015;50.924;11.598;2022-09-03T09:21:26;99445.99;;;23.08;36.99
51999;BME280;38015;50.924;11.598;2022-09-03T09:23:51;99444.70;;;23.19;36.77
51999;BME280;38015;50.924;11.598;2022-09-03T09:26:21;99443.08;;;23.21;36.74
51999;BME280;38015;50.924;11.598;2022-09-03T09:28:55;99441.97;;;23.26;36.62
51999;BME280;38015;50.924;11.598;2022-09-03T09:31:22;99435.94;;;23.20;36.74
51999;BME280;38015;50.924;11.598;2022-09-03T09:33:53;99436.79;;;23.21;36.70
51999;BME280;38015;50.924;11.598;2022-09-03T09:36:24;99433.08;;;23.20;36.72
51999;BME280;38015;50.924;11.598;2022-09-03T09:38:53;99433.59;;;23.04;37.04
51999;BME280;38015;50.924;11.598;2022-09-03T09:41:24;99431.72;;;23.11;36.90
51999;BME280;38015;50.924;11.598;2022-09-03T09:44:00;99431.40;;;23.14;36.85
51999;BME280;38015;50.924;11.598;2022-09-03T09:46:26;99427.35;;;23.29;36.58
51999;BME280;38015;50.924;11.598;2022-09-03T09:48:57;99428.10;;;23.22;36.71
51999;BME280;38015;50.924;11.598;2022-09-03T09:51:27;99429.29;;;23.14;36.86
51999;BME280;38015;50.924;11.598;2022-09-03T09:54:00;99426.63;;;23.30;36.47
51999;BME280;38015;50.924;11.598;2022-09-03T09:56:26;99424.40;;;23.16;36.75
51999;BME280;38015;50.924;11.598;2022-09-03T09:59:02;99423.03;;;23.24;36.55
51999;BME280;38015;50.924;11.598;2022-09-03T10:01:27;99423.30;;;23.19;36.65
51999;BME280;38015;50.924;11.598;2022-09-03T10:03:59;99416.12;;;23.37;36.30
51999;BME280;38015;50.924;11.598;2022-09-03T10:06:29;99417.89;;;23.23;36.56
51999;BME280;38015;50.924;11.598;2022-09-03T10:09:06;99420.68;;;23.29;36.45
51999;BME280;38015;50.924;11.598;2022-09-03T10:11:28;99419.78;;;23.25;36.58
51999;BME280;38015;50.924;11.598;2022-09-03T10:13:59;99414.50;;;23.32;36.41
51999;BME280;38015;50.924;11.598;2022-09-03T10:16:34;99417.16;;;23.45;36.10
51999;BME280;38015;50.924;11.598;2022-09-03T10:19:03;99418.70;;;23.49;36.06
51999;BME280;38015;50.924;11.598;2022-09-03T10:21:37;99420.75;;;23.50;36.04
51999;BME280;38015;50.924;11.598;2022-09-03T10:24:09;99416.04;;;23.47;36.05
51999;BME280;38015;50.924;11.598;2022-09-03T10:26:30;99415.14;;;23.38;36.23
51999;BME280;38015;50.924;11.598;2022-09-03T10:29:03;99408.04;;;23.34;36.34
51999;BME280;38015;50.924;11.598;2022-09-03T10:31:41;99404.34;;;23.38;36.24
51999;BME280;38015;50.924;11.598;2022-09-03T10:34:07;99405.52;;;23.40;36.21
51999;BME280;38015;50.924;11.598;2022-09-03T10:36:36;99405.53;;;23.52;35.83
51999;BME280;38015;50.924;11.598;2022-09-03T10:39:04;99401.54;;;23.47;36.05
51999;BME280;38015;50.924;11.598;2022-09-03T10:41:42;99403.99;;;23.61;35.77
51999;BME280;38015;50.924;11.598;2022-09-03T10:44:14;99403.59;;;23.49;35.99
51999;BME280;38015;50.924;11.598;2022-09-03T10:46:40;99401.45;;;23.57;35.85
51999;BME280;38015;50.924;11.598;2022-09-03T10:49:16;99402.42;;;23.50;35.99
51999;BME280;38015;50.924;11.598;2022-09-03T10:51:35;99400.05;;;23.47;36.05
51999;BME280;38015;50.924;11.598;2022-09-03T10:54:16;99405.37;;;23.56;35.86
51999;BME280;38015;50.924;11.598;2022-09-03T10:56:41;99399.14;;;23.55;35.84
51999;BME280;38015;50.924;11.598;2022-09-03T10:59:17;99398.44;;;23.49;35.97
51999;BME280;38015;50.924;11.598;2022-09-03T11:01:42;99398.95;;;23.49;35.94
51999;BME280;38015;50.924;11.598;2022-09-03T11:04:18;99390.48;;;23.49;35.93
51999;BME280;38015;50.924;11.598;2022-09-03T11:06:42;99390.13;;;23.50;35.97
51999;BME280;38015;50.924;11.598;2022-09-03T11:09:12;99393.44;;;23.42;36.06
51999;BME280;38015;50.924;11.598;2022-09-03T11:11:39;99391.14;;;23.41;36.05
51999;BME280;38015;50.924;11.598;2022-09-03T11:14:09;99386.47;;;23.39;36.17
51999;BME280;38015;50.924;11.598;2022-09-03T11:16:42;99384.99;;;23.49;35.96
51999;BME280;38015;50.924;11.598;2022-09-03T11:19:10;99388.58;;;23.50;35.95
51999;BME280;38015;50.924;11.598;2022-09-03T11:21:39;99384.79;;;23.52;35.82
51999;BME280;38015;50.924;11.598;2022-09-03T11:24:12;99381.85;;;23.43;35.98
51999;BME280;38015;50.924;11.598;2022-09-03T11:26:40;99378.13;;;23.43;35.95
51999;BME280;38015;50.924;11.598;2022-09-03T11:29:14;99376.74;;;23.41;36.03
51999;BME280;38015;50.924;11.598;2022-09-03T11:31:51;99377.35;;;23.30;36.27
51999;BME280;38015;50.924;11.598;2022-09-03T11:34:13;99371.93;;;23.45;35.89
51999;BME280;38015;50.924;11.598;2022-09-03T11:36:41;99371.12;;;23.40;35.95
51999;BME280;38015;50.924;11.598;2022-09-03T11:39:13;99364.70;;;23.46;35.88
51999;BME280;38015;50.924;11.598;2022-09-03T11:41:41;99360.44;;;23.40;35.91
51999;BME280;38015;50.924;11.598;2022-09-03T11:44:17;99357.86;;;23.49;35.89
51999;BME280;38015;50.924;11.598;2022-09-03T11:49:12;99353.64;;;23.52;35.67
51999;BME280;38015;50.924;11.598;2022-09-03T11:51:42;99348.77;;;23.43;35.81
51999;BME280;38015;50.924;11.598;2022-09-03T11:56:45;99350.02;;;23.42;35.88
51999;BME280;38015;50.924;11.598;2022-09-03T11:59:17;99354.21;;;23.47;35.62
51999;BME280;38015;50.924;11.598;2022-09-03T12:01:48;99348.00;;;23.48;35.68
51999;BME280;38015;50.924;11.598;2022-09-03T12:04:15;99349.83;;;23.43;35.79
51999;BME280;38015;50.924;11.598;2022-09-03T12:11:54;99344.80;;;23.46;35.75
51999;BME280;38015;50.924;11.598;2022-09-03T12:14:22;99343.68;;;23.40;35.94
51999;BME280;38015;50.924;11.598;2022-09-03T12:16:56;99343.00;;;23.37;35.98
51999;BME280;38015;50.924;11.598;2022-09-03T12:19:25;99342.06;;;23.48;35.80
51999;BME280;38015;50.924;11.598;2022-09-03T12:21:47;99340.93;;;23.42;35.90
51999;BME280;38015;50.924;11.598;2022-09-03T12:24:18;99342.59;;;23.46;35.72
51999;BME280;38015;50.924;11.598;2022-09-03T12:26:48;99346.26;;;23.47;35.82
51999;BME280;38015;50.924;11.598;2022-09-03T12:29:22;99343.95;;;23.54;35.68
51999;BME280;38015;50.924;11.598;2022-09-03T12:31:49;99341.42;;;23.53;35.66
51999;BME280;38015;50.924;11.598;2022-09-03T12:34:19;99338.80;;;23.50;35.67
51999;BME280;38015;50.924;11.598;2022-09-03T12:36:51;99332.31;;;23.50;35.69
51999;BME280;38015;50.924;11.598;2022-09-03T12:39:21;99334.89;;;23.48;35.69
51999;BME280;38015;50.924;11.598;2022-09-03T12:41:56;99334.89;;;23.56;35.54
51999;BME280;38015;50.924;11.598;2022-09-03T12:44:24;99333.89;;;23.52;35.64
51999;BME280;38015;50.924;11.598;2022-09-03T12:46:59;99330.24;;;23.52;35.66
51999;BME280;38015;50.924;11.598;2022-09-03T12:49:21;99325.59;;;23.47;35.61
51999;BME280;38015;50.924;11.598;2022-09-03T12:51:57;99321.40;;;23.44;35.67
51999;BME280;38015;50.924;11.598;2022-09-03T12:54:22;99320.82;;;23.58;35.39
51999;BME280;38015;50.924;11.598;2022-09-03T12:56:54;99313.42;;;23.52;35.57
51999;BME280;38015;50.924;11.598;2022-09-03T12:59:25;99310.14;;;23.47;35.60
51999;BME280;38015;50.924;11.598;2022-09-03T13:01:54;99310.50;;;23.53;35.55
51999;BME280;38015;50.924;11.598;2022-09-03T13:04:27;99308.12;;;23.46;35.55
51999;BME280;38015;50.924;11.598;2022-09-03T13:06:55;99306.79;;;23.51;35.37
51999;BME280;38015;50.924;11.598;2022-09-03T13:09:25;99302.58;;;23.51;35.40
51999;BME280;38015;50.924;11.598;2022-09-03T13:11:55;99299.34;;;23.53;35.42
51999;BME280;38015;50.924;11.598;2022-09-03T13:14:25;99297.32;;;23.54;35.54
51999;BME280;38015;50.924;11.598;2022-09-03T13:19:34;99298.54;;;23.54;35.45
51999;BME280;38015;50.924;11.598;2022-09-03T13:22:03;99296.17;;;23.53;35.24